Silva, North Dakota
Current Conditions -  °F | °C
As of 10:35 AM on Friday 19 Dec 2014 (Local Time) from KRUG Reporting Station
Haze Haze  
Wind Chill: 21°   Ceiling: 400
Heat Index: 27°   Visibility: 3mi
Dew Point: 27°   Wind: 5mph
Humidity: 100%   Direction: 210°SSW
Pressure: 29.96"   Gusts: NA
Location:  48.2119°N, 99.9965°W
Report Text: KRUG 191635Z AUTO 21004KT 3SM BR OVC004 M03/M03 A2996 RMK AO2
Loading
Personal Weather Stations






























Interactive Weather Map New forecast layout! Learn more

10-Day Weather Forecast

Advertisements
Track Severe Weather on mobile